Anchorage/Merrill Field, Alaska
Current Conditions -  °F | °C
As of 11:53 AM on Thursday 23 Oct 2014 (Local Time) from PAMR Reporting Station
Clear Clear  
Wind Chill: -1°   Ceiling: Unl
Heat Index: -1°   Visibility: 10mi
Dew Point: -4°   Wind: 0mph
Humidity: 76%   Direction: NA
Pressure: 29.71"   Gusts: NA
Location:  61.21°N, 149.85°W
Report Text: PAMR 231953Z 00000KT 10SM CLR M01/M04 A2971 RMK AO2 SLP061 T10061044
Loading
Personal Weather Stations






























Interactive Weather Map
Tropical Storm Tracking
New forecast layout! Learn more

10-Day Weather Forecast

Advertisements
Track Severe Weather on mobile